Springfield, AR (72157)

11:57 PM CDT on March 29, 2017 (GMT -0500)
Overcup | | Change Station
Active Advisory: Tornado Watch

Elev 397 ft 35.22 °N, 92.68 °W | Updated 15 seconds ago

Rain
Rain
61.0 °F
Feels Like 61.0 °F
N
7.0
Wind Variable Wind from NNW

Today
High -- | Low -- °F
--% Chance of Precip.
Yesterday
High -- | Low -- °F
Precip. -- in
Pressure 29.67 in
Visibility 10.0 miles
Clouds Overcast 9000 ft
Dew Point 58 °F
Humidity 93%
Rainfall 0.82 in
Snow Depth Not available.
7:00 AM 7:29 PM
Waxing Crescent, 6% visible
METAR KRUE 300453Z AUTO 11005KT 10SM OVC090 17/16 A2969 RMK AO2 LTG DSNT W-NE RAE36 TSE22 SLP047 T01670156 $
Pressure 29.67 in
Visibility 10.0 miles
Clouds Overcast 9000 ft
Dew Point 58 °F
Humidity 93%
Rainfall 0.82 in
Snow Depth Not available.
7:00 AM 7:29 PM
Waxing Crescent, 6% visible
METAR KRUE 300453Z AUTO 11005KT 10SM OVC090 17/16 A2969 RMK AO2 LTG DSNT W-NE RAE36 TSE22 SLP047 T01670156 $

Get Your Daily Forecast Email!

Thanks for signing up!

Be on the lookout for a verification email in your inbox.

You'll start receiving severe weather alerts in your inbox..

×

10-Day Weather Forecast

Almanac

Astronomy

Mar. 29, 2017 Rise Set
Actual Time
Civil Twilight
Nautical Twilight
Astronomical Twilight
Moon
Length of Visible Light
Length of Day
Tomorrow will be .
, % of the Moon is Illuminated

Today's Extremes

State Highs State Lows

Community

WunderPhotos

Upload Photos

1,962,540 photos uploaded!

WunderBlog® & News

Nearby

Air Quality

  Air Quality AQ Index Pollutant
Not available.

Snow Depth

Station Depth Elevation

Earthquake Activity

City Distance Mag. Time & Date
Minimum magnitude displayed is 2.5.

Earthquake Activity

City Distance Mag. Time & Date
Minimum magnitude displayed is 2.5.

Coastal Water Temperatures

Place Temperature

Stations

Nearby Weather Stations

Station Location Temp. Windchill Dew Point Humidity Wind Precip. Elev Updated Type
                   

Watches & Warnings

Tornado Watch
Issued: 11:43 PM CDT Mar. 29, 2017 – National Weather Service

Tornado Watch 100 remains in effect until 1200 am CDT for the
following locations


AR
. Arkansas counties included are

Baxter Boone Clark
Cleburne Conway Faulkner
Fulton Garland Hempstead
Hot Spring Howard Independence
Izard Johnson Lafayette
Little River Lonoke Marion
Miller Nevada Newton
Perry Pope Pulaski
Saline Searcy Sevier
sharp stone Van Buren
white